createdAt,value
2022-08-05T00:01:35.588Z,93.40
2022-08-05T00:04:05.105Z,93.30
2022-08-05T00:06:36.126Z,93.40
2022-08-05T00:09:13.101Z,93.40
2022-08-05T00:11:49.037Z,93.50
2022-08-05T00:14:17.634Z,93.60
2022-08-05T00:16:52.971Z,93.90
2022-08-05T00:19:23.331Z,94.30
2022-08-05T00:21:52.301Z,94.50
2022-08-05T00:24:24.768Z,94.50
2022-08-05T00:26:57.775Z,94.70
2022-08-05T00:29:26.193Z,94.60
2022-08-05T00:32:13.507Z,94.70
2022-08-05T00:35:05.595Z,94.80
2022-08-05T00:37:35.647Z,94.80
2022-08-05T00:40:28.425Z,95.10
2022-08-05T00:43:02.178Z,95.10
2022-08-05T00:45:39.441Z,95.20
2022-08-05T00:48:27.398Z,95.30
2022-08-05T00:50:54.854Z,95.40
2022-08-05T00:54:00.396Z,95.50
2022-08-05T00:56:12.080Z,95.50
2022-08-05T00:58:39.227Z,95.60
2022-08-05T01:01:12.205Z,95.80
2022-08-05T01:03:40.412Z,95.90
2022-08-05T01:06:14.234Z,95.80
2022-08-05T01:08:44.225Z,95.90
2022-08-05T01:11:36.838Z,96.00
2022-08-05T01:14:28.222Z,96.20
2022-08-05T01:17:17.740Z,96.40
2022-08-05T01:20:00.770Z,96.50
2022-08-05T01:23:23.480Z,96.80
2022-08-05T01:26:18.444Z,96.90
2022-08-05T01:29:05.348Z,97.10
2022-08-05T01:31:52.524Z,97.30
2022-08-05T01:34:28.123Z,97.50
2022-08-05T01:37:37.900Z,97.70
2022-08-05T01:40:13.964Z,97.50
2022-08-05T01:42:49.139Z,97.60
2022-08-05T01:45:18.201Z,97.60
2022-08-05T01:47:49.967Z,97.70
2022-08-05T01:50:36.108Z,97.70
2022-08-05T01:53:13.348Z,97.80
2022-08-05T01:55:45.242Z,97.80
2022-08-05T01:58:17.101Z,97.80
2022-08-05T02:00:50.986Z,97.80
2022-08-05T02:03:31.574Z,97.90
2022-08-05T02:06:03.631Z,97.80
2022-08-05T02:08:58.654Z,97.90
2022-08-05T02:11:52.909Z,97.90
2022-08-05T02:14:47.223Z,97.90
2022-08-05T02:18:28.258Z,97.70
2022-08-05T02:20:23.251Z,97.90
2022-08-05T02:23:05.772Z,97.80
2022-08-05T02:25:50.111Z,97.70
2022-08-05T02:28:33.088Z,97.80
2022-08-05T02:31:07.695Z,98.00
2022-08-05T02:33:57.557Z,97.90
2022-08-05T02:36:31.323Z,98.00
2022-08-05T02:39:01.730Z,98.00
2022-08-05T02:41:36.370Z,98.00
2022-08-05T02:44:24.618Z,98.00
2022-08-05T02:46:59.733Z,98.00
2022-08-05T02:49:37.748Z,98.00
2022-08-05T02:52:30.036Z,98.00
2022-08-05T02:55:02.026Z,97.90
2022-08-05T02:58:10.044Z,97.90
2022-08-05T03:00:20.818Z,97.80
2022-08-05T03:02:50.543Z,97.80
2022-08-05T03:05:21.849Z,97.90
2022-08-05T03:08:09.499Z,97.80
2022-08-05T03:10:36.865Z,97.90
2022-08-05T03:13:17.104Z,97.70
2022-08-05T03:15:46.139Z,97.80
2022-08-05T03:18:14.006Z,97.90
2022-08-05T03:20:44.555Z,98.00
2022-08-05T03:23:16.359Z,98.20
2022-08-05T03:26:05.035Z,98.30
2022-08-05T03:28:31.571Z,98.30
2022-08-05T03:31:02.430Z,98.30
2022-08-05T03:33:51.043Z,98.30
2022-08-05T03:36:18.346Z,98.40
2022-08-05T03:38:58.259Z,98.50
2022-08-05T03:41:25.559Z,98.50
2022-08-05T03:44:10.991Z,98.50
2022-08-05T03:46:39.045Z,98.70
2022-08-05T03:49:06.700Z,98.70
2022-08-05T03:52:36.627Z,98.90
2022-08-05T03:55:52.963Z,99.00
2022-08-05T03:57:44.559Z,99.00
2022-08-05T04:00:16.648Z,99.20
2022-08-05T04:02:57.943Z,99.20
2022-08-05T04:05:33.283Z,99.30
2022-08-05T04:08:29.750Z,99.30
2022-08-05T04:10:57.231Z,99.30
2022-08-05T04:13:50.422Z,99.50
2022-08-05T04:16:15.404Z,99.30
2022-08-05T04:18:54.219Z,99.50
2022-08-05T04:22:10.284Z,99.60
2022-08-05T04:24:18.668Z,99.50
2022-08-05T04:26:47.198Z,99.50
2022-08-05T04:29:14.286Z,99.60
2022-08-05T04:31:41.424Z,99.70
2022-08-05T04:34:19.010Z,99.80
2022-08-05T04:36:50.208Z,99.70
2022-08-05T04:39:19.620Z,99.70
2022-08-05T04:41:48.353Z,99.60
2022-08-05T04:44:21.304Z,99.60
2022-08-05T04:46:56.163Z,99.50
2022-08-05T04:49:24.670Z,99.20
2022-08-05T04:52:07.738Z,99.20
2022-08-05T04:54:34.807Z,99.00
2022-08-05T04:57:01.749Z,99.10
2022-08-05T04:59:36.809Z,98.80
2022-08-05T05:02:41.182Z,98.50
2022-08-05T05:04:52.927Z,98.30
2022-08-05T05:07:32.352Z,98.50
2022-08-05T05:10:04.414Z,98.50
2022-08-05T05:12:31.658Z,98.20
2022-08-05T05:14:58.790Z,98.00
2022-08-05T05:17:56.713Z,97.60
2022-08-05T05:20:14.125Z,97.20
2022-08-05T05:22:44.182Z,97.00
2022-08-05T05:25:17.086Z,96.90
2022-08-05T05:27:53.616Z,96.90
2022-08-05T05:30:30.901Z,96.70
2022-08-05T05:33:03.474Z,96.20
2022-08-05T05:35:39.527Z,96.00
2022-08-05T05:38:13.308Z,95.90
2022-08-05T05:40:49.884Z,95.60
2022-08-05T05:43:21.864Z,95.50
2022-08-05T05:45:54.818Z,95.00
2022-08-05T05:48:27.616Z,94.70
2022-08-05T05:50:54.755Z,94.10
2022-08-05T05:53:22.790Z,93.70
2022-08-05T05:55:52.179Z,93.20
2022-08-05T05:58:31.395Z,93.00
2022-08-05T06:01:12.079Z,92.50
2022-08-05T06:04:01.153Z,92.20
2022-08-05T06:06:31.134Z,92.10
2022-08-05T06:09:00.548Z,92.00
2022-08-05T06:11:28.988Z,91.40
2022-08-05T06:13:56.786Z,91.10
2022-08-05T06:16:30.749Z,90.60
2022-08-05T06:19:01.751Z,90.40
2022-08-05T06:21:36.811Z,90.40
2022-08-05T06:24:11.858Z,89.80
2022-08-05T06:26:51.571Z,89.00
2022-08-05T06:29:25.104Z,87.90
2022-08-05T06:32:21.051Z,88.10
2022-08-05T06:34:56.531Z,87.90
2022-08-05T06:37:56.059Z,86.00
2022-08-05T06:40:18.449Z,85.30
2022-08-05T06:42:52.108Z,84.70
2022-08-05T06:45:44.996Z,85.00
2022-08-05T06:48:36.960Z,84.50
2022-08-05T06:50:56.159Z,84.10
2022-08-05T06:53:28.285Z,84.00
2022-08-05T06:56:00.256Z,82.10
2022-08-05T06:58:29.928Z,82.70
2022-08-05T07:01:04.613Z,80.80
2022-08-05T07:03:33.219Z,80.70
2022-08-05T07:06:05.981Z,79.60
2022-08-05T07:08:47.783Z,80.60
2022-08-05T07:11:21.966Z,79.50
2022-08-05T07:14:20.569Z,77.30
2022-08-05T07:18:08.749Z,78.20
2022-08-05T07:20:32.133Z,77.00
2022-08-05T07:22:37.803Z,77.10
2022-08-05T07:25:24.117Z,76.60
2022-08-05T07:27:58.502Z,76.90
2022-08-05T07:30:32.518Z,76.50
2022-08-05T07:33:15.968Z,77.20
2022-08-05T07:36:03.459Z,77.60
2022-08-05T07:38:43.491Z,75.90
2022-08-05T07:42:13.396Z,75.50
2022-08-05T07:44:14.305Z,74.70
2022-08-05T07:46:53.875Z,73.50
2022-08-05T07:49:21.441Z,73.40
2022-08-05T07:51:53.479Z,73.50
2022-08-05T07:54:33.442Z,73.10
2022-08-05T07:57:23.625Z,72.80
2022-08-05T07:59:52.446Z,71.90
2022-08-05T08:02:31.134Z,72.10
2022-08-05T08:05:17.409Z,71.40
2022-08-05T08:07:59.631Z,71.80
2022-08-05T08:10:28.722Z,71.10
2022-08-05T08:12:59.708Z,71.60
2022-08-05T08:16:33.634Z,70.40
2022-08-05T08:18:20.875Z,70.50
2022-08-05T08:21:02.475Z,70.70
2022-08-05T08:24:01.968Z,70.30
2022-08-05T08:26:17.722Z,70.30
2022-08-05T08:29:21.768Z,70.40
2022-08-05T08:31:46.685Z,70.60
2022-08-05T08:34:30.693Z,70.20
2022-08-05T08:37:03.353Z,69.50
2022-08-05T08:39:32.506Z,69.20
2022-08-05T08:42:10.803Z,69.10
2022-08-05T08:45:23.786Z,69.30
2022-08-05T08:48:06.847Z,67.70
2022-08-05T08:51:03.310Z,67.80
2022-08-05T08:53:35.433Z,67.30
2022-08-05T08:56:13.267Z,66.70
2022-08-05T08:58:44.708Z,66.80
2022-08-05T09:01:18.211Z,67.50
2022-08-05T09:03:58.327Z,66.60
2022-08-05T09:06:29.993Z,66.10
2022-08-05T09:09:01.191Z,66.20
2022-08-05T09:11:50.831Z,66.10
2022-08-05T09:14:57.810Z,65.70
2022-08-05T09:17:39.970Z,64.60
2022-08-05T09:20:02.360Z,65.70
2022-08-05T09:23:07.812Z,65.90
2022-08-05T09:26:02.926Z,65.60
2022-08-05T09:28:31.499Z,65.20
2022-08-05T09:31:44.208Z,65.90
2022-08-05T09:34:09.801Z,65.80
2022-08-05T09:36:59.192Z,66.00
2022-08-05T09:39:45.816Z,66.10
2022-08-05T09:42:23.366Z,64.70
2022-08-05T09:44:56.352Z,64.60
2022-08-05T09:47:46.581Z,64.50
2022-08-05T09:50:38.110Z,64.20
2022-08-05T09:53:07.118Z,65.10
2022-08-05T09:55:57.130Z,65.00
2022-08-05T09:58:25.370Z,64.70
2022-08-05T10:01:01.322Z,65.20
2022-08-05T10:03:56.968Z,63.50
2022-08-05T10:06:20.744Z,64.90
2022-08-05T10:08:50.319Z,64.60
2022-08-05T10:11:21.360Z,64.00
2022-08-05T10:13:54.604Z,63.50
2022-08-05T10:16:41.825Z,63.50
2022-08-05T10:19:31.884Z,63.80
2022-08-05T10:22:30.204Z,64.00
2022-08-05T10:24:59.248Z,63.00
2022-08-05T10:28:13.232Z,62.80
2022-08-05T10:31:20.711Z,62.60
2022-08-05T10:33:35.214Z,62.60
2022-08-05T10:36:05.143Z,63.60
2022-08-05T10:38:36.213Z,63.00
2022-08-05T10:41:45.166Z,62.00
2022-08-05T10:44:20.351Z,62.10
2022-08-05T10:46:54.751Z,61.60
2022-08-05T10:49:33.352Z,62.40
2022-08-05T10:52:49.583Z,62.70
2022-08-05T10:55:18.480Z,60.70
2022-08-05T10:57:46.191Z,60.60
2022-08-05T11:00:23.251Z,61.50
2022-08-05T11:03:24.372Z,62.10
2022-08-05T11:06:15.362Z,61.50
2022-08-05T11:09:31.989Z,60.50
2022-08-05T11:12:42.184Z,61.50
2022-08-05T11:15:21.648Z,60.30
2022-08-05T11:18:11.651Z,61.90
2022-08-05T11:20:47.766Z,59.50
2022-08-05T11:24:04.326Z,59.50
2022-08-05T11:26:29.133Z,59.40
2022-08-05T11:29:13.129Z,60.30
2022-08-05T11:31:57.877Z,60.30
2022-08-05T11:34:47.459Z,59.70
2022-08-05T11:38:29.157Z,61.10
2022-08-05T11:41:34.592Z,58.90
2022-08-05T11:44:08.510Z,57.80
2022-08-05T11:46:58.476Z,57.40
2022-08-05T11:49:29.348Z,57.70
2022-08-05T11:52:02.092Z,58.60
2022-08-05T11:54:41.379Z,57.20
2022-08-05T11:57:25.015Z,57.40
2022-08-05T11:59:53.833Z,57.20
2022-08-05T12:02:31.898Z,56.80
2022-08-05T12:05:07.947Z,55.70
2022-08-05T12:08:07.814Z,55.60
2022-08-05T12:10:43.805Z,56.60
2022-08-05T12:13:18.929Z,57.00
2022-08-05T12:16:15.070Z,56.90
2022-08-05T12:18:48.945Z,57.10
2022-08-05T12:21:42.226Z,56.60
2022-08-05T12:24:14.311Z,57.30
2022-08-05T12:26:50.606Z,56.30
2022-08-05T12:29:22.971Z,56.30
2022-08-05T12:32:01.963Z,57.40
2022-08-05T12:34:33.315Z,56.80
2022-08-05T12:37:29.816Z,55.90
2022-08-05T12:40:03.511Z,57.20
2022-08-05T12:42:39.913Z,57.80
2022-08-05T12:45:10.965Z,57.10
2022-08-05T12:47:43.419Z,57.30
2022-08-05T12:50:25.982Z,57.20
2022-08-05T12:53:01.415Z,57.50
2022-08-05T12:55:32.481Z,56.60
2022-08-05T12:58:48.950Z,57.00
2022-08-05T13:02:02.522Z,56.20
2022-08-05T13:03:43.323Z,57.60
2022-08-05T13:06:17.691Z,57.30
2022-08-05T13:08:51.724Z,58.00
2022-08-05T13:11:25.576Z,57.90
2022-08-05T13:14:20.222Z,58.40
2022-08-05T13:16:56.381Z,59.10
2022-08-05T13:19:27.545Z,59.60
2022-08-05T13:22:15.079Z,59.10
2022-08-05T13:25:05.845Z,58.30
2022-08-05T13:27:43.785Z,58.90
2022-08-05T13:30:34.837Z,59.80
2022-08-05T13:33:05.459Z,60.00
2022-08-05T13:35:47.395Z,60.70
2022-08-05T13:38:30.563Z,61.90
2022-08-05T13:41:01.323Z,60.00
2022-08-05T13:43:45.446Z,59.10
2022-08-05T13:46:16.500Z,59.40
2022-08-05T13:49:03.809Z,59.10
2022-08-05T13:51:40.327Z,59.80
2022-08-05T13:54:15.032Z,61.30
2022-08-05T13:56:50.792Z,61.70
2022-08-05T13:59:21.440Z,60.50
2022-08-05T14:02:00.310Z,59.40
2022-08-05T14:04:51.039Z,60.20
2022-08-05T14:07:59.498Z,59.60
2022-08-05T14:10:28.718Z,58.60
2022-08-05T14:12:59.399Z,58.50
2022-08-05T14:16:05.957Z,58.60
2022-08-05T14:18:18.557Z,58.60
2022-08-05T14:20:54.489Z,58.60
2022-08-05T14:23:25.707Z,58.00
2022-08-05T14:25:58.262Z,58.40
2022-08-05T14:28:28.403Z,58.70
2022-08-05T14:31:00.578Z,59.00
2022-08-05T14:33:32.647Z,59.10
2022-08-05T14:36:15.571Z,59.20
2022-08-05T14:38:47.972Z,59.20
2022-08-05T14:41:15.187Z,60.00
2022-08-05T14:44:01.832Z,59.80
2022-08-05T14:46:35.325Z,59.80
2022-08-05T14:49:07.571Z,59.10
2022-08-05T14:51:37.988Z,58.50
2022-08-05T14:54:27.746Z,59.00
2022-08-05T14:56:54.992Z,58.80
2022-08-05T14:59:22.338Z,58.50
2022-08-05T15:01:50.184Z,58.60
2022-08-05T15:04:22.596Z,58.90
2022-08-05T15:06:51.332Z,58.90
2022-08-05T15:09:51.790Z,58.20
2022-08-05T15:12:11.718Z,58.60
2022-08-05T15:14:49.976Z,58.30
2022-08-05T15:17:47.339Z,58.70
2022-08-05T15:20:18.618Z,58.40
2022-08-05T15:22:54.104Z,58.80
2022-08-05T15:25:40.858Z,59.30
2022-08-05T15:28:13.367Z,59.30
2022-08-05T15:30:45.589Z,59.00
2022-08-05T15:34:04.704Z,59.20
2022-08-05T15:36:05.709Z,59.40
2022-08-05T15:38:41.258Z,59.30
2022-08-05T15:41:22.464Z,59.30
2022-08-05T15:43:54.752Z,59.70
2022-08-05T15:46:24.101Z,59.50
2022-08-05T15:48:55.642Z,59.50
2022-08-05T15:52:04.416Z,59.10
2022-08-05T15:54:18.370Z,59.20
2022-08-05T15:56:45.476Z,59.30
2022-08-05T15:59:22.344Z,59.50
2022-08-05T16:01:52.832Z,59.90
2022-08-05T16:04:25.499Z,59.70
2022-08-05T16:06:55.811Z,59.90
2022-08-05T16:09:25.124Z,60.30
2022-08-05T16:11:54.794Z,59.90
2022-08-05T16:14:24.156Z,60.90
2022-08-05T16:16:56.509Z,60.40
2022-08-05T16:20:05.296Z,60.50
2022-08-05T16:22:15.489Z,60.40
2022-08-05T16:24:51.183Z,60.50
2022-08-05T16:27:32.022Z,60.80
2022-08-05T16:30:26.513Z,60.90
2022-08-05T16:32:55.798Z,60.60
2022-08-05T16:35:28.365Z,60.40
2022-08-05T16:38:15.603Z,60.80
2022-08-05T16:40:51.894Z,60.90
2022-08-05T16:43:27.770Z,60.60
2022-08-05T16:46:06.636Z,61.30
2022-08-05T16:48:40.344Z,61.50
2022-08-05T16:51:09.492Z,61.50
2022-08-05T16:54:06.299Z,61.10
2022-08-05T16:56:29.319Z,61.10
2022-08-05T16:58:57.754Z,61.70
2022-08-05T17:01:24.965Z,62.00
2022-08-05T17:03:52.270Z,62.20
2022-08-05T17:06:20.477Z,61.90
2022-08-05T17:08:54.372Z,61.90
2022-08-05T17:11:25.303Z,62.30
2022-08-05T17:14:00.629Z,62.00
2022-08-05T17:16:36.516Z,62.60
2022-08-05T17:19:09.294Z,62.50
2022-08-05T17:21:37.696Z,62.60
2022-08-05T17:24:28.255Z,63.40
2022-08-05T17:26:59.114Z,63.60
2022-08-05T17:29:33.301Z,64.00
2022-08-05T17:32:16.835Z,64.20
2022-08-05T17:34:48.086Z,64.20
2022-08-05T17:37:39.801Z,64.40
2022-08-05T17:40:10.313Z,64.60
2022-08-05T17:42:42.912Z,64.70
2022-08-05T17:45:21.143Z,65.60
2022-08-05T17:47:55.711Z,69.20
2022-08-05T17:50:30.277Z,74.60
2022-08-05T17:53:05.381Z,75.10
2022-08-05T17:55:38.082Z,78.70
2022-08-05T17:58:13.506Z,81.20
2022-08-05T18:00:50.542Z,82.90
2022-08-05T18:06:11.331Z,84.10
2022-08-05T18:08:40.507Z,84.10
2022-08-05T18:11:24.759Z,84.70
2022-08-05T18:13:59.852Z,85.40
2022-08-05T18:16:27.258Z,85.60
2022-08-05T18:18:54.343Z,86.10
2022-08-05T18:21:26.455Z,86.60
2022-08-05T18:24:12.678Z,86.80
2022-08-05T18:26:41.719Z,86.90
2022-08-05T18:29:10.892Z,87.50
2022-08-05T18:31:38.396Z,87.40
2022-08-05T18:34:12.173Z,87.90
2022-08-05T18:36:41.249Z,88.10
2022-08-05T18:39:42.021Z,88.50
2022-08-05T18:42:07.617Z,88.90
2022-08-05T18:44:48.960Z,89.40
2022-08-05T18:47:16.545Z,89.90
2022-08-05T18:50:02.052Z,90.00
2022-08-05T18:52:33.664Z,89.80
2022-08-05T18:55:10.441Z,90.10
2022-08-05T18:57:49.964Z,91.70
2022-08-05T19:00:21.042Z,96.20
2022-08-05T19:02:55.486Z,99.90
2022-08-05T19:06:13.370Z,99.90
2022-08-05T19:08:13.523Z,99.90
2022-08-05T19:10:42.398Z,99.90
2022-08-05T19:13:12.245Z,99.90
2022-08-05T19:15:58.764Z,99.90
2022-08-05T19:18:28.655Z,99.90
2022-08-05T19:20:56.226Z,99.90
2022-08-05T19:24:06.718Z,99.90
2022-08-05T19:26:11.115Z,99.90
2022-08-05T19:28:42.249Z,99.90
2022-08-05T19:31:13.506Z,99.90
2022-08-05T19:33:48.493Z,99.90
2022-08-05T19:36:29.374Z,99.90
2022-08-05T19:39:01.315Z,99.90
2022-08-05T19:42:05.446Z,99.90
2022-08-05T19:44:19.046Z,99.90
2022-08-05T19:46:47.062Z,99.90
2022-08-05T20:06:46.460Z,99.90
2022-08-05T20:09:14.488Z,99.90
2022-08-05T20:11:48.123Z,99.90
2022-08-05T20:14:26.753Z,99.90
2022-08-05T20:16:55.374Z,99.90
2022-08-05T20:19:23.695Z,99.90
2022-08-05T20:22:02.938Z,99.90
2022-08-05T20:24:32.935Z,99.90
2022-08-05T20:27:02.254Z,99.90
2022-08-05T20:29:29.403Z,99.90
2022-08-05T20:31:58.358Z,99.90
2022-08-05T20:34:27.029Z,99.90
2022-08-05T20:36:54.205Z,99.90
2022-08-05T20:39:22.830Z,99.90
2022-08-05T20:41:50.005Z,99.90
2022-08-05T20:44:30.194Z,99.90
2022-08-05T20:47:06.708Z,99.90
2022-08-05T20:49:39.695Z,99.90
2022-08-05T21:03:37.969Z,99.90
2022-08-05T21:06:28.228Z,99.90
2022-08-05T21:08:55.734Z,99.90
2022-08-05T21:12:06.525Z,99.90
2022-08-05T21:14:10.185Z,99.90
2022-08-05T21:16:39.901Z,99.90
2022-08-05T21:19:06.892Z,99.90
2022-08-05T21:21:39.585Z,99.90
2022-08-05T21:24:13.525Z,99.90
2022-08-05T21:26:50.250Z,99.90
2022-08-05T21:29:26.694Z,99.90
2022-08-05T21:31:59.146Z,99.90
2022-08-05T21:34:26.178Z,99.90
2022-08-05T21:36:55.410Z,99.90
2022-08-05T21:39:26.979Z,99.90
2022-08-05T21:42:01.492Z,99.90
2022-08-05T21:44:31.060Z,99.90
2022-08-05T21:46:59.681Z,99.90
2022-08-05T21:49:58.472Z,99.90
2022-08-05T21:52:21.999Z,99.90
2022-08-05T21:54:56.362Z,99.90
2022-08-05T21:57:32.621Z,99.90
2022-08-05T22:00:05.535Z,99.90
2022-08-05T22:02:33.991Z,99.90
2022-08-05T22:05:01.256Z,99.90
2022-08-05T22:07:40.101Z,99.90
2022-08-05T22:10:17.525Z,99.90
2022-08-05T22:12:54.226Z,99.90
2022-08-05T22:16:02.431Z,99.90
2022-08-05T22:18:08.604Z,99.90
2022-08-05T22:20:39.119Z,99.90
2022-08-05T22:24:00.715Z,99.90
2022-08-05T22:26:31.547Z,99.90
2022-08-05T22:29:00.645Z,99.90
2022-08-05T22:31:30.271Z,99.90
2022-08-05T22:34:01.363Z,99.90
2022-08-05T22:36:29.277Z,99.90
2022-08-05T22:38:56.917Z,99.90
2022-08-05T22:42:04.178Z,99.90
2022-08-05T22:44:12.008Z,99.90
2022-08-05T22:46:40.870Z,99.90
2022-08-05T22:50:18.361Z,99.90
2022-08-05T22:52:05.050Z,99.90
2022-08-05T22:54:34.001Z,99.90
2022-08-05T22:57:01.056Z,99.90
2022-08-05T22:59:43.966Z,99.90
2022-08-05T23:02:16.468Z,99.90
2022-08-05T23:05:02.017Z,99.90
2022-08-05T23:07:44.807Z,99.90
2022-08-05T23:10:20.311Z,99.90
2022-08-05T23:12:54.701Z,99.90
2022-08-05T23:15:29.444Z,99.90
2022-08-05T23:18:03.361Z,99.90
2022-08-05T23:20:37.280Z,99.90
2022-08-05T23:23:08.405Z,99.90
2022-08-05T23:25:51.046Z,99.90
2022-08-05T23:28:21.153Z,99.90
2022-08-05T23:30:53.663Z,99.90
2022-08-05T23:33:26.479Z,99.90
2022-08-05T23:36:10.277Z,99.90
2022-08-05T23:38:39.217Z,99.90
2022-08-05T23:41:06.407Z,99.90
2022-08-05T23:44:06.492Z,99.90
2022-08-05T23:46:22.152Z,99.90
2022-08-05T23:49:00.721Z,99.90
2022-08-05T23:51:53.889Z,99.90
2022-08-05T23:54:25.607Z,99.90
2022-08-05T23:57:03.791Z,99.90
